Time;durP1;ratioP1;P1;durP2;ratioP2;P2;SDS_P1;SDS_P2;PMS_P1;PMS_P2;Temp;Humidity;BMP_temperature;BMP_pressure;BME280_temperature;BME280_humidity;BME280_pressure;Samples;Min_cycle;Max_cycle;Signal;HPM_P1;HPM_P2
2021/10/29 00:01:04;;;;;;;28.57;19.37;;;;;;;2.71;100.00;96188.94;5029959;28;20802;-73
2021/10/29 00:03:29;;;;;;;44.80;20.50;;;;;;;2.69;100.00;96185.66;5013819;28;20048;-74
2021/10/29 00:05:55;;;;;;;31.20;20.27;;;;;;;2.66;100.00;96179.88;5053017;28;20039;-74
2021/10/29 00:08:21;;;;;;;26.70;19.40;;;;;;;2.69;100.00;96175.28;5038659;28;20032;-73
2021/10/29 00:10:47;;;;;;;29.70;20.80;;;;;;;2.72;100.00;96175.06;5038517;28;20067;-74
2021/10/29 00:13:13;;;;;;;28.80;18.97;;;;;;;2.68;100.00;96172.78;5045334;28;20086;-74
2021/10/29 00:15:39;;;;;;;29.30;21.43;;;;;;;2.63;100.00;96178.31;5056890;28;20037;-74
2021/10/29 00:18:05;;;;;;;32.50;20.33;;;;;;;2.55;100.00;96168.50;5036257;28;20039;-74
2021/10/29 00:20:31;;;;;;;59.43;22.20;;;;;;;2.48;100.00;96169.03;5033533;28;20037;-74
2021/10/29 00:22:57;;;;;;;125.43;27.87;;;;;;;2.43;100.00;96166.78;5056633;28;20043;-74
2021/10/29 00:25:23;;;;;;;30.63;21.03;;;;;;;2.48;100.00;96162.09;5039784;28;20455;-74
2021/10/29 00:27:48;;;;;;;85.40;23.27;;;;;;;2.46;100.00;96160.53;5017425;28;20026;-74
2021/10/29 00:30:14;;;;;;;81.83;22.47;;;;;;;2.45;100.00;96164.91;5053904;28;20033;-74
2021/10/29 00:32:41;;;;;;;307.47;33.57;;;;;;;2.38;100.00;96163.66;5036414;28;20028;-74
2021/10/29 00:35:07;;;;;;;269.97;31.03;;;;;;;2.38;100.00;96166.25;5042801;28;20081;-74
2021/10/29 00:37:38;;;;;;;622.23;53.90;;;;;;;2.29;100.00;96162.59;5062921;28;20451;-74
2021/10/29 00:40:06;;;;;;;373.37;38.27;;;;;;;2.28;100.00;96147.09;5054866;28;20033;-74
2021/10/29 00:42:31;;;;;;;454.77;43.17;;;;;;;2.28;100.00;96150.56;5060505;28;20455;-74
2021/10/29 00:44:57;;;;;;;394.40;40.00;;;;;;;2.27;100.00;96156.66;5038024;28;20466;-74
2021/10/29 00:47:23;;;;;;;361.77;39.10;;;;;;;2.22;100.00;96155.34;5063178;28;20025;-74
2021/10/29 00:49:49;;;;;;;316.37;38.27;;;;;;;2.20;100.00;96152.84;5034714;28;20131;-74
2021/10/29 00:52:16;;;;;;;200.37;32.63;;;;;;;2.20;100.00;96141.66;5038943;28;21352;-74
2021/10/29 00:54:43;;;;;;;263.90;34.60;;;;;;;2.16;100.00;96146.22;5048162;28;20063;-73
2021/10/29 00:57:09;;;;;;;349.70;40.63;;;;;;;2.18;100.00;96141.78;5053310;28;20052;-74
2021/10/29 00:59:35;;;;;;;133.03;27.47;;;;;;;2.20;100.00;96133.88;5035837;28;21019;-74
2021/10/29 01:02:01;;;;;;;59.13;23.00;;;;;;;2.24;100.00;96135.31;5022990;28;20504;-74
2021/10/29 01:04:27;;;;;;;55.83;22.50;;;;;;;2.21;100.00;96133.75;5066985;28;20067;-75
2021/10/29 01:06:53;;;;;;;37.60;21.17;;;;;;;2.21;100.00;96138.13;5061862;28;20382;-74
2021/10/29 01:09:19;;;;;;;30.13;21.20;;;;;;;2.27;100.00;96135.09;5044049;28;20504;-74
2021/10/29 01:11:44;;;;;;;30.27;20.77;;;;;;;2.22;100.00;96129.41;5061780;28;20032;-74
2021/10/29 01:14:10;;;;;;;31.07;20.53;;;;;;;2.25;100.00;96140.41;5046344;28;20107;-74
2021/10/29 01:16:37;;;;;;;27.40;18.63;;;;;;;2.24;100.00;96137.91;5020369;28;20016;-74
2021/10/29 01:19:03;;;;;;;27.90;19.67;;;;;;;2.19;100.00;96134.81;5037917;28;20029;-74
2021/10/29 01:21:29;;;;;;;26.50;18.37;;;;;;;2.18;100.00;96133.13;5058746;28;21402;-74
2021/10/29 01:23:55;;;;;;;27.67;19.23;;;;;;;2.16;100.00;96127.25;5064054;28;20043;-73
2021/10/29 01:26:21;;;;;;;26.23;17.60;;;;;;;2.14;100.00;96127.34;5065565;28;20717;-74
2021/10/29 01:28:47;;;;;;;26.73;18.93;;;;;;;2.12;100.00;96130.06;5057239;28;20045;-74
2021/10/29 01:31:15;;;;;;;24.90;17.37;;;;;;;2.16;100.00;96129.84;5044960;28;20028;-74
2021/10/29 01:33:42;;;;;;;23.00;16.87;;;;;;;2.16;100.00;96122.06;5046177;28;20041;-74
2021/10/29 01:36:08;;;;;;;22.43;16.33;;;;;;;2.12;100.00;96124.88;5059946;28;20017;-74
2021/10/29 01:38:40;;;;;;;23.63;16.83;;;;;;;2.16;100.00;96116.88;5055634;28;20098;-74
2021/10/29 01:41:07;;;;;;;21.03;16.27;;;;;;;2.20;100.00;96116.53;5044409;28;20550;-74
2021/10/29 01:43:45;;;;;;;21.67;15.40;;;;;;;2.21;100.00;96117.34;5056702;28;20555;-74
2021/10/29 01:46:12;;;;;;;19.67;15.27;;;;;;;2.25;100.00;96117.03;5057106;28;20028;-74
2021/10/29 01:48:43;;;;;;;19.87;15.03;;;;;;;2.27;100.00;96098.75;5058832;28;20451;-74
2021/10/29 01:51:09;;;;;;;18.00;13.90;;;;;;;2.25;100.00;96098.06;5064354;28;20043;-75
2021/10/29 01:53:34;;;;;;;20.53;15.27;;;;;;;2.26;100.00;96102.28;5064709;28;20074;-74
2021/10/29 01:56:00;;;;;;;19.23;14.27;;;;;;;2.30;100.00;96091.56;5036875;28;20068;-74
2021/10/29 01:58:26;;;;;;;19.27;14.73;;;;;;;2.30;100.00;96101.94;5054917;28;20111;-73
2021/10/29 02:00:53;;;;;;;19.47;14.93;;;;;;;2.30;100.00;96101.94;5039667;28;20417;-74
2021/10/29 02:03:19;;;;;;;18.17;14.57;;;;;;;2.37;100.00;96099.75;5025716;28;20028;-74
2021/10/29 02:05:44;;;;;;;18.50;13.83;;;;;;;2.29;100.00;96107.28;5038221;28;20040;-73
2021/10/29 02:08:10;;;;;;;19.30;13.70;;;;;;;2.29;100.00;96099.47;5041760;28;20517;-74
2021/10/29 02:10:37;;;;;;;18.33;12.93;;;;;;;2.25;100.00;96098.06;5061442;28;20033;-74
2021/10/29 02:13:03;;;;;;;17.10;13.13;;;;;;;2.17;100.00;96097.78;5062604;28;20056;-74
2021/10/29 02:15:29;;;;;;;17.37;12.60;;;;;;;2.15;100.00;96104.81;5053615;28;20132;-74
2021/10/29 02:17:55;;;;;;;18.10;12.90;;;;;;;2.07;100.00;96098.44;5039582;28;20024;-74
2021/10/29 02:20:21;;;;;;;17.73;12.97;;;;;;;2.11;100.00;96096.44;5044478;28;20094;-73
2021/10/29 02:22:48;;;;;;;18.87;12.83;;;;;;;2.13;100.00;96092.81;5038311;28;20024;-73
2021/10/29 02:25:14;;;;;;;19.30;14.33;;;;;;;2.16;100.00;96088.34;5051375;28;20029;-74
2021/10/29 02:27:40;;;;;;;19.47;14.20;;;;;;;2.13;100.00;96100.59;5033228;28;20028;-73
2021/10/29 02:30:06;;;;;;;17.50;13.00;;;;;;;2.10;100.00;96092.19;5056722;28;20067;-73
2021/10/29 02:32:32;;;;;;;18.07;13.10;;;;;;;2.10;100.00;96090.44;5038656;28;20110;-73
2021/10/29 02:34:58;;;;;;;19.03;13.10;;;;;;;2.13;100.00;96098.00;5042270;28;21073;-74
2021/10/29 02:37:24;;;;;;;17.53;13.53;;;;;;;2.10;100.00;96094.78;5036745;28;20498;-74
2021/10/29 02:39:50;;;;;;;19.83;13.73;;;;;;;2.04;100.00;96090.84;5061630;28;20130;-73
2021/10/29 02:42:15;;;;;;;19.63;13.90;;;;;;;2.06;100.00;96089.00;5042944;28;20032;-73
2021/10/29 02:44:42;;;;;;;16.77;12.73;;;;;;;2.03;100.00;96088.41;5048042;28;20033;-74
2021/10/29 02:47:08;;;;;;;19.50;14.63;;;;;;;1.93;100.00;96093.41;5033080;28;20025;-73
2021/10/29 02:49:34;;;;;;;17.57;12.47;;;;;;;1.98;100.00;96093.91;5037831;28;20037;-73
2021/10/29 02:52:00;;;;;;;18.87;13.80;;;;;;;1.98;100.00;96085.28;5020946;28;20025;-73
2021/10/29 02:54:26;;;;;;;17.67;13.10;;;;;;;1.93;100.00;96090.00;5041573;28;20039;-74
2021/10/29 02:56:51;;;;;;;16.30;12.67;;;;;;;1.93;100.00;96080.44;5013796;28;20033;-73
2021/10/29 02:59:17;;;;;;;17.57;13.10;;;;;;;2.02;100.00;96087.56;5039839;28;20036;-73
2021/10/29 03:01:43;;;;;;;16.93;12.17;;;;;;;1.98;100.00;96088.72;5034497;28;20104;-73
2021/10/29 03:04:08;;;;;;;29.60;14.07;;;;;;;1.98;100.00;96090.47;5052748;28;20062;-73
2021/10/29 03:06:34;;;;;;;19.20;12.60;;;;;;;1.90;100.00;96093.63;5061740;28;20106;-73
2021/10/29 03:09:00;;;;;;;44.27;15.70;;;;;;;1.78;100.00;96095.34;5041550;28;20037;-73
2021/10/29 03:11:26;;;;;;;83.60;17.53;;;;;;;1.76;100.00;96096.38;5041782;28;20424;-74
2021/10/29 03:13:51;;;;;;;27.23;13.67;;;;;;;1.80;100.00;96092.63;5043417;28;20095;-73
2021/10/29 03:16:17;;;;;;;17.63;12.73;;;;;;;1.84;100.00;96092.28;5058714;28;20178;-74
2021/10/29 03:18:43;;;;;;;59.50;14.90;;;;;;;1.76;100.00;96092.00;5061003;28;20036;-74
2021/10/29 03:21:09;;;;;;;31.07;14.40;;;;;;;1.88;100.00;96092.94;5048109;28;20107;-74
2021/10/29 03:23:35;;;;;;;327.70;27.37;;;;;;;1.77;100.00;96090.25;5058201;28;20032;-74
2021/10/29 03:26:01;;;;;;;242.27;24.03;;;;;;;1.70;100.00;96089.84;5038189;28;20835;-73
2021/10/29 03:28:27;;;;;;;348.40;30.73;;;;;;;1.67;100.00;96084.88;5036004;28;20037;-73
2021/10/29 03:30:53;;;;;;;161.03;18.57;;;;;;;1.76;100.00;96079.06;5034391;28;20103;-73
2021/10/29 03:33:18;;;;;;;105.47;18.50;;;;;;;1.71;100.00;96083.75;5064663;28;20477;-73
2021/10/29 03:35:44;;;;;;;117.10;18.57;;;;;;;1.82;100.00;96085.56;5029949;28;20043;-73
2021/10/29 03:48:20;;;;;;;221.60;21.03;;;;;;;1.77;100.00;96083.28;5030764;28;20508;-74
2021/10/29 03:51:05;;;;;;;167.87;19.73;;;;;;;1.77;100.00;96077.28;5043539;28;20459;-74
2021/10/29 03:55:58;;;;;;;25.23;14.87;;;;;;;2.01;100.00;96080.75;5038306;28;20454;-74
2021/10/29 03:58:24;;;;;;;208.37;22.10;;;;;;;1.82;100.00;96082.97;5053480;28;20041;-74
2021/10/29 04:00:50;;;;;;;139.50;24.10;;;;;;;1.82;100.00;96075.22;5039639;28;20439;-74
2021/10/29 04:03:16;;;;;;;113.17;20.13;;;;;;;1.82;100.00;96076.03;5057553;28;20031;-74
2021/10/29 04:05:41;;;;;;;326.97;27.70;;;;;;;1.82;100.00;96085.56;5040684;28;20393;-74
2021/10/29 04:08:09;;;;;;;148.80;16.33;;;;;;;1.93;100.00;96080.44;5016966;28;20057;-74
2021/10/29 04:10:39;;;;;;;138.80;16.90;;;;;;;1.96;100.00;96069.84;5055293;28;20103;-74
2021/10/29 04:13:09;;;;;;;148.83;16.23;;;;;;;1.97;100.00;96074.09;5047447;28;20446;-73
2021/10/29 04:15:37;;;;;;;114.30;14.80;;;;;;;2.06;100.00;96073.44;5030543;28;20448;-74
2021/10/29 04:18:03;;;;;;;106.83;15.07;;;;;;;2.01;100.00;96069.50;5060716;28;20047;-74
2021/10/29 04:20:29;;;;;;;315.57;28.30;;;;;;;2.04;100.00;96071.88;5046982;28;20040;-74
2021/10/29 04:22:55;;;;;;;229.50;23.77;;;;;;;2.01;100.00;96074.69;5040846;28;20043;-74
2021/10/29 04:25:21;;;;;;;67.63;14.17;;;;;;;1.98;100.00;96069.72;5044686;28;20036;-74
2021/10/29 04:27:57;;;;;;;182.63;20.00;;;;;;;2.02;100.00;96066.81;5062888;28;20504;-74
2021/10/29 04:30:25;;;;;;;55.73;13.27;;;;;;;2.02;100.00;96064.22;5040817;28;20532;-74
2021/10/29 04:32:51;;;;;;;51.20;13.47;;;;;;;1.99;100.00;96072.22;5052904;28;20125;-74
2021/10/29 04:35:16;;;;;;;108.80;16.37;;;;;;;2.02;100.00;96076.38;5047739;28;20120;-74
2021/10/29 04:37:43;;;;;;;124.33;16.40;;;;;;;2.03;100.00;96076.25;5071173;28;20025;-74
2021/10/29 04:40:09;;;;;;;86.57;14.50;;;;;;;2.08;100.00;96070.75;5042109;28;20165;-74
2021/10/29 04:42:37;;;;;;;29.20;13.53;;;;;;;2.07;100.00;96075.09;5029964;28;20460;-74
2021/10/29 04:45:05;;;;;;;134.83;19.07;;;;;;;1.94;100.00;96078.66;5061352;28;20032;-73
2021/10/29 04:47:31;;;;;;;204.63;21.07;;;;;;;1.97;100.00;96066.31;5019073;28;20447;-74
2021/10/29 04:49:57;;;;;;;361.27;30.40;;;;;;;1.81;100.00;96069.19;5053127;28;20543;-74
2021/10/29 04:52:23;;;;;;;207.60;23.07;;;;;;;1.84;100.00;96070.72;5040515;28;20040;-74
2021/10/29 04:54:49;;;;;;;209.53;22.77;;;;;;;1.79;100.00;96072.81;5042634;28;20036;-74
2021/10/29 04:57:15;;;;;;;401.63;32.50;;;;;;;1.78;100.00;96066.81;5024827;28;20086;-73
2021/10/29 04:59:41;;;;;;;78.47;16.10;;;;;;;1.83;100.00;96071.66;5021475;28;20028;-74
2021/10/29 05:02:06;;;;;;;214.03;23.50;;;;;;;1.73;100.00;96065.47;5045200;28;20792;-74
2021/10/29 05:04:32;;;;;;;359.23;30.97;;;;;;;1.63;100.00;96065.31;5040671;28;20410;-74
2021/10/29 05:06:57;;;;;;;187.33;20.90;;;;;;;1.70;100.00;96050.97;5038380;28;20106;-74
2021/10/29 05:09:23;;;;;;;542.70;42.53;;;;;;;1.61;100.00;96059.38;5019151;28;20075;-74
2021/10/29 05:11:49;;;;;;;309.53;27.27;;;;;;;1.59;100.00;96062.09;5043913;28;20048;-74
2021/10/29 05:14:15;;;;;;;314.17;29.10;;;;;;;1.58;100.00;96063.06;5053848;28;20033;-74
2021/10/29 05:16:40;;;;;;;337.67;29.90;;;;;;;1.54;100.00;96056.44;5024278;28;20028;-74
2021/10/29 05:19:06;;;;;;;254.00;25.63;;;;;;;1.51;100.00;96056.66;5038035;28;20072;-74
2021/10/29 05:21:32;;;;;;;221.97;22.90;;;;;;;1.48;100.00;96054.28;5039502;28;20028;-74
2021/10/29 05:23:58;;;;;;;302.93;27.63;;;;;;;1.38;100.00;96061.03;5062590;28;20029;-73
2021/10/29 05:26:24;;;;;;;93.03;15.67;;;;;;;1.45;100.00;96057.06;5039054;28;20443;-74
2021/10/29 05:28:49;;;;;;;328.77;29.90;;;;;;;1.29;100.00;96053.88;5043352;28;20406;-74
2021/10/29 05:31:15;;;;;;;206.50;20.97;;;;;;;1.32;100.00;96058.84;5038984;28;20028;-73
2021/10/29 05:33:41;;;;;;;309.57;27.97;;;;;;;1.27;100.00;96055.75;5038845;28;20039;-74
2021/10/29 05:36:08;;;;;;;326.00;28.97;;;;;;;1.17;100.00;96053.81;5019743;28;20503;-74
2021/10/29 05:38:34;;;;;;;202.90;21.23;;;;;;;1.23;100.00;96062.91;5034206;28;20486;-73
2021/10/29 05:41:01;;;;;;;106.33;16.43;;;;;;;1.31;100.00;96062.41;5044640;28;20450;-73
2021/10/29 05:43:28;;;;;;;174.13;19.03;;;;;;;1.27;100.00;96066.09;5052975;28;20513;-73
2021/10/29 05:45:54;;;;;;;238.43;24.47;;;;;;;1.24;100.00;96066.31;5031764;28;21020;-74
2021/10/29 05:48:20;;;;;;;127.17;16.80;;;;;;;1.23;100.00;96072.44;5029973;28;20486;-74
2021/10/29 05:50:50;;;;;;;204.13;21.33;;;;;;;1.18;100.00;96071.00;5033523;28;20469;-74
2021/10/29 05:53:53;;;;;;;146.87;17.80;;;;;;;1.13;100.00;96067.06;5063807;28;20482;-73
2021/10/29 05:56:05;;;;;;;179.70;19.43;;;;;;;1.06;100.00;96068.44;5045108;28;20466;-74
2021/10/29 05:58:32;;;;;;;300.13;25.27;;;;;;;1.02;100.00;96067.81;5041771;28;20447;-73
2021/10/29 06:00:58;;;;;;;161.23;16.73;;;;;;;1.08;100.00;96069.16;5045853;28;20466;-74
2021/10/29 06:03:24;;;;;;;179.93;20.67;;;;;;;1.06;100.00;96071.84;5040680;28;21080;-74
2021/10/29 06:05:49;;;;;;;116.13;16.53;;;;;;;1.06;100.00;96058.88;5039151;28;20446;-74
2021/10/29 06:08:15;;;;;;;262.97;23.53;;;;;;;1.00;100.00;96064.47;5062543;28;20028;-74
2021/10/29 06:10:41;;;;;;;119.30;18.30;;;;;;;1.08;100.00;96064.81;5049337;28;20033;-73
2021/10/29 06:13:06;;;;;;;162.23;18.60;;;;;;;1.13;100.00;96061.88;5034278;28;20040;-73
2021/10/29 06:15:33;;;;;;;244.27;20.87;;;;;;;1.09;100.00;96068.22;5062133;28;20112;-74
2021/10/29 06:17:59;;;;;;;244.90;21.23;;;;;;;1.08;100.00;96064.81;5048030;28;20029;-74
2021/10/29 06:20:26;;;;;;;132.90;16.87;;;;;;;1.12;100.00;96063.66;5021149;28;20819;-73
2021/10/29 06:22:53;;;;;;;198.93;20.87;;;;;;;1.06;100.00;96063.25;5027977;28;20027;-74
2021/10/29 06:25:21;;;;;;;161.97;18.83;;;;;;;1.16;100.00;96049.56;5041579;28;20579;-74
2021/10/29 06:30:39;;;;;;;241.80;22.83;;;;;;;1.24;100.00;96043.88;5055946;28;20467;-74
2021/10/29 06:33:05;;;;;;;260.97;24.43;;;;;;;1.24;100.00;96050.78;5033243;28;20469;-73
2021/10/29 06:35:31;;;;;;;242.10;23.73;;;;;;;1.36;100.00;96037.81;5037843;28;20442;-74
2021/10/29 06:38:01;;;;;;;186.37;20.60;;;;;;;1.35;100.00;96040.50;5033228;28;20451;-74
2021/10/29 06:40:28;;;;;;;198.23;20.67;;;;;;;1.29;100.00;96039.16;5035829;28;20836;-74
2021/10/29 06:43:02;;;;;;;93.67;15.63;;;;;;;1.43;100.00;96043.38;5041329;28;20874;-73
2021/10/29 06:59:15;;;;;;;128.30;16.00;;;;;;;1.83;100.00;96049.16;5055446;28;20590;-73
2021/10/29 07:42:16;;;;;;;10.10;6.60;;;;;;;3.64;100.00;96047.69;5056766;28;20041;-73
2021/10/29 07:44:42;;;;;;;10.50;7.00;;;;;;;3.30;100.00;96048.53;5041175;28;20124;-73
2021/10/29 07:47:08;;;;;;;9.47;6.93;;;;;;;3.40;100.00;96043.47;5034227;28;20108;-73
2021/10/29 07:49:33;;;;;;;10.57;7.73;;;;;;;3.56;100.00;96050.06;5055859;28;20040;-74
2021/10/29 07:51:59;;;;;;;10.30;7.53;;;;;;;3.77;100.00;96045.75;5062978;28;20035;-74
2021/10/29 07:54:26;;;;;;;8.83;6.43;;;;;;;3.60;100.00;96041.91;5066653;28;20109;-74
2021/10/29 07:56:52;;;;;;;10.70;7.23;;;;;;;3.80;100.00;96040.31;5057900;28;20028;-73
2021/10/29 07:59:22;;;;;;;10.97;6.80;;;;;;;4.69;100.00;96040.88;5041691;28;20033;-74
2021/10/29 08:01:49;;;;;;;10.10;7.60;;;;;;;4.90;100.00;96033.06;5055360;28;20110;-74
2021/10/29 08:04:18;;;;;;;9.17;5.63;;;;;;;5.06;100.00;96037.78;5044323;28;20640;-73
2021/10/29 08:06:44;;;;;;;8.60;6.10;;;;;;;5.38;100.00;96038.47;5044675;28;20043;-73
2021/10/29 08:09:10;;;;;;;8.77;5.57;;;;;;;4.99;100.00;96039.25;5054936;28;20037;-74
2021/10/29 08:11:37;;;;;;;11.20;6.37;;;;;;;5.03;100.00;96043.25;5059433;28;20037;-74
2021/10/29 08:14:02;;;;;;;9.60;7.23;;;;;;;5.34;100.00;96039.69;5048063;28;20027;-74
2021/10/29 08:16:28;;;;;;;10.10;6.40;;;;;;;5.70;100.00;96037.47;5050201;28;20017;-74
2021/10/29 08:18:54;;;;;;;9.47;6.30;;;;;;;6.42;100.00;96038.13;5011267;28;20044;-74
2021/10/29 08:21:19;;;;;;;8.87;6.03;;;;;;;7.01;100.00;96031.84;5054310;28;20039;-74
2021/10/29 08:23:45;;;;;;;8.40;5.37;;;;;;;7.59;97.19;96026.38;5027666;28;20112;-74
2021/10/29 08:26:11;;;;;;;7.37;5.20;;;;;;;6.65;100.00;96023.78;5054680;28;20836;-74
2021/10/29 08:28:38;;;;;;;8.67;5.03;;;;;;;7.93;98.79;95999.56;5019658;28;20040;-74
2021/10/29 08:31:04;;;;;;;7.70;4.97;;;;;;;7.73;96.74;95998.88;5056809;28;20052;-74
2021/10/29 08:33:30;;;;;;;6.90;4.60;;;;;;;8.19;95.15;95990.00;5044520;28;20029;-74
2021/10/29 08:35:56;;;;;;;7.33;4.93;;;;;;;9.24;90.25;95995.31;5025617;28;20059;-74
2021/10/29 08:38:23;;;;;;;6.50;4.80;;;;;;;9.87;87.31;95981.78;5049882;28;20029;-74
2021/10/29 08:40:50;;;;;;;5.93;4.40;;;;;;;9.09;89.31;95993.28;5048433;28;20025;-74
2021/10/29 08:43:17;;;;;;;7.63;4.37;;;;;;;9.28;88.26;95992.22;5014660;28;20025;-73
2021/10/29 08:45:43;;;;;;;7.37;4.63;;;;;;;9.47;88.37;95985.91;5054491;28;20078;-73
2021/10/29 08:48:09;;;;;;;5.87;4.10;;;;;;;9.35;89.38;95988.00;5047042;28;20055;-73
2021/10/29 08:50:35;;;;;;;6.77;4.67;;;;;;;9.63;87.11;95988.59;5034057;28;20043;-73
2021/10/29 08:53:02;;;;;;;6.50;4.37;;;;;;;9.61;86.49;95987.94;5043527;28;20048;-73
2021/10/29 08:55:31;;;;;;;5.67;3.80;;;;;;;9.98;85.61;95986.72;5031788;28;20390;-74
2021/10/29 08:57:59;;;;;;;6.23;4.30;;;;;;;11.26;80.53;95981.72;5028702;28;20403;-74
2021/10/29 09:00:28;;;;;;;5.77;4.07;;;;;;;10.99;83.13;95981.13;5018593;28;20040;-75
2021/10/29 09:03:13;;;;;;;5.80;3.90;;;;;;;11.01;82.73;95980.97;5054707;28;20096;-75
2021/10/29 09:08:16;;;;;;;8.20;5.33;;;;;;;11.42;80.66;95978.22;5029614;28;20029;-74
2021/10/29 09:11:19;;;;;;;6.63;4.27;;;;;;;12.46;73.09;95976.97;5034919;28;20037;-75
2021/10/29 09:31:32;;;;;;;7.43;4.70;;;;;;;10.84;84.99;95988.09;5058123;28;20111;-75
2021/10/29 09:34:02;;;;;;;7.03;4.45;;;;;;;10.12;85.75;95991.31;5020017;28;20035;-75
2021/10/29 09:36:34;;;;;;;6.77;5.03;;;;;;;11.35;86.16;95979.91;5050119;28;20048;-75
2021/10/29 09:39:09;;;;;;;7.53;5.63;;;;;;;12.06;82.18;95971.00;5042163;28;20032;-75
2021/10/29 09:42:07;;;;;;;6.87;4.77;;;;;;;12.97;77.80;95967.44;5032757;28;20171;-75
2021/10/29 09:44:48;;;;;;;6.07;4.67;;;;;;;12.54;77.10;95976.09;5029430;28;20051;-75
2021/10/29 09:47:21;;;;;;;8.70;4.90;;;;;;;13.48;73.81;95968.56;5049423;28;20394;-75
2021/10/29 09:50:13;;;;;;;6.97;4.90;;;;;;;13.07;74.74;95971.63;5051897;28;20032;-75
2021/10/29 09:57:34;;;;;;;7.10;5.00;;;;;;;12.05;81.06;95972.00;5049302;28;20120;-73
2021/10/29 10:00:06;;;;;;;7.00;4.53;;;;;;;12.79;76.52;95968.78;5040840;28;20021;-76
2021/10/29 10:02:42;;;;;;;6.77;5.00;;;;;;;12.91;73.09;95965.53;5053124;28;20123;-74
2021/10/29 10:05:09;;;;;;;6.97;4.33;;;;;;;13.05;77.19;95971.00;5046361;28;20040;-73
2021/10/29 10:07:37;;;;;;;8.00;4.83;;;;;;;13.78;72.94;95961.41;5039941;28;20569;-74
2021/10/29 10:10:07;;;;;;;8.03;4.37;;;;;;;14.35;72.39;95958.78;5033318;28;20036;-74
2021/10/29 10:12:35;;;;;;;8.93;4.43;;;;;;;14.74;73.90;95956.69;5047658;28;20374;-73
2021/10/29 10:15:05;;;;;;;7.67;5.33;;;;;;;14.52;68.29;95967.31;5033016;28;20044;-73
2021/10/29 10:17:32;;;;;;;7.67;5.13;;;;;;;13.53;72.45;95966.19;5030599;28;20053;-73
2021/10/29 10:19:59;;;;;;;9.65;5.25;;;;;;;14.05;75.00;95962.53;5059656;28;20031;-73
2021/10/29 10:22:28;;;;;;;10.18;6.25;;;;;;;14.59;68.33;95954.13;5039510;28;20166;-74
2021/10/29 10:25:08;;;;;;;9.05;5.72;;;;;;;14.51;65.93;95954.25;5034675;28;20549;-74
2021/10/29 10:30:35;;;;;;;7.82;5.57;;;;;;;13.87;68.76;95960.31;5039663;28;20061;-75
2021/10/29 10:46:49;;;;;;;8.67;6.20;;;;;;;12.68;71.86;95948.94;5045708;28;20033;-74
2021/10/29 10:49:20;;;;;;;12.37;7.37;;;;;;;12.49;72.72;95948.44;5015162;28;20509;-74
2021/10/29 10:52:03;;;;;;;11.10;7.07;;;;;;;12.67;74.37;95942.81;5017658;28;20051;-75
2021/10/29 11:10:23;;;;;;;9.93;7.00;;;;;;;12.10;76.00;95908.22;5060331;28;20380;-73
2021/10/29 11:12:49;;;;;;;12.73;7.20;;;;;;;12.32;75.20;95912.66;5043026;28;20052;-73
2021/10/29 11:15:22;;;;;;;8.80;6.30;;;;;;;12.39;76.09;95908.31;5014375;28;20599;-74
2021/10/29 11:18:00;;;;;;;10.25;6.70;;;;;;;12.81;74.81;95906.94;5035599;28;20417;-75
2021/10/29 11:23:32;;;;;;;8.47;6.40;;;;;;;13.61;72.26;95884.19;5029214;28;20405;-74
2021/10/29 11:26:36;;;;;;;9.33;6.00;;;;;;;13.43;71.44;95881.97;5046999;28;20025;-75
2021/10/29 11:29:03;;;;;;;10.05;7.50;;;;;;;13.96;68.83;95879.06;5049319;28;20823;-73
2021/10/29 11:31:35;;;;;;;10.63;7.75;;;;;;;14.36;66.35;95878.41;5030960;28;20040;-74
2021/10/29 11:34:05;;;;;;;11.68;7.90;;;;;;;14.07;66.11;95876.72;5049232;28;20044;-73
2021/10/29 11:36:37;;;;;;;9.65;6.88;;;;;;;14.55;65.94;95862.88;5030004;28;20033;-72
2021/10/29 11:39:10;;;;;;;10.38;7.18;;;;;;;14.63;66.16;95864.59;5033323;28;20405;-74
2021/10/29 11:41:37;;;;;;;;;;;;;;;14.50;68.02;95858.19;5031154;28;20033;-73
2021/10/29 11:44:17;;;;;;;9.45;6.78;;;;;;;14.08;67.23;95859.88;5034899;28;20605;-74
2021/10/29 11:46:46;;;;;;;10.05;7.53;;;;;;;14.01;67.72;95861.59;5016832;28;20033;-76
2021/10/29 11:49:17;;;;;;;13.40;6.97;;;;;;;14.40;67.10;95855.03;5015748;28;20044;-75
2021/10/29 11:51:45;;;;;;;10.10;7.63;;;;;;;14.24;66.42;95848.19;5051786;28;20052;-73
2021/10/29 11:59:42;;;;;;;10.15;7.45;;;;;;;15.52;66.69;95832.81;5030407;28;20029;-74
2021/10/29 12:07:25;;;;;;;11.98;5.97;;;;;;;14.76;67.32;95828.44;5034990;28;20033;-73
2021/10/29 12:10:00;;;;;;;10.55;6.53;;;;;;;15.20;66.41;95824.56;5032655;28;20529;-73
2021/10/29 12:12:29;;;;;;;8.05;6.35;;;;;;;15.66;66.07;95823.91;5056795;28;20048;-73
2021/10/29 12:15:01;;;;;;;10.90;6.20;;;;;;;15.28;66.50;95821.72;5034232;28;20028;-73
2021/10/29 12:17:32;;;;;;;8.32;6.20;;;;;;;14.46;69.64;95832.28;5054428;28;20086;-73
2021/10/29 12:20:06;;;;;;;8.25;6.30;;;;;;;15.41;67.74;95815.66;5037238;28;20021;-74
2021/10/29 12:22:42;;;;;;;9.13;6.63;;;;;;;16.45;64.14;95819.66;5019727;28;20041;-74
2021/10/29 12:25:22;;;;;;;9.05;6.10;;;;;;;15.73;66.65;95824.75;5031851;28;20065;-75
2021/10/29 12:28:05;;;;;;;9.38;6.35;;;;;;;15.41;66.87;95825.44;5030262;28;20036;-73
2021/10/29 12:30:37;;;;;;;8.55;5.57;;;;;;;15.32;67.33;95816.84;5037454;28;20090;-73
2021/10/29 13:03:25;;;;;;;13.38;11.05;;;;;;;14.55;71.28;95787.00;5066810;28;20037;-73
2021/10/29 13:05:56;;;;;;;11.80;7.82;;;;;;;14.09;72.29;95784.00;5035941;28;20047;-73
2021/10/29 13:08:24;;;;;;;10.48;7.75;;;;;;;13.87;74.93;95781.38;5065858;28;20032;-73
2021/10/29 13:10:55;;;;;;;9.90;7.25;;;;;;;13.75;76.28;95772.34;5061103;28;20111;-73
2021/10/29 13:13:27;;;;;;;9.60;6.85;;;;;;;13.49;76.52;95772.91;5032042;28;20032;-73
2021/10/29 13:16:00;;;;;;;10.33;7.83;;;;;;;13.71;76.70;95770.25;5043194;28;20043;-73
2021/10/29 13:18:34;;;;;;;7.97;6.03;;;;;;;13.34;76.74;95769.50;5035130;28;20071;-73
2021/10/29 13:28:44;;;;;;;8.65;6.38;;;;;;;12.96;79.62;95777.59;5034928;28;20029;-73
2021/10/29 13:52:43;;;;;;;13.80;12.07;;;;;;;12.91;82.45;95791.34;5032600;28;20386;-73
2021/10/29 13:57:58;;;;;;;11.47;9.50;;;;;;;11.99;85.73;95786.41;5060736;28;20028;-73
2021/10/29 14:03:38;;;;;;;11.00;8.43;;;;;;;12.25;85.13;95791.25;5042603;28;20037;-73
2021/10/29 14:30:32;;;;;;;11.07;8.63;;;;;;;11.76;85.11;95775.06;5039519;28;20044;-74
2021/10/29 14:33:18;;;;;;;16.57;8.80;;;;;;;11.42;86.78;95770.22;5061936;28;20063;-74
2021/10/29 14:35:47;;;;;;;13.03;9.43;;;;;;;11.88;84.64;95772.84;5042228;28;20496;-73
2021/10/29 14:41:05;;;;;;;11.80;9.30;;;;;;;11.09;87.75;95771.25;5052135;28;20025;-73
2021/10/29 14:43:40;;;;;;;10.60;8.23;;;;;;;10.85;88.28;95777.47;5065782;28;20036;-74
2021/10/29 14:49:00;;;;;;;12.57;9.80;;;;;;;10.90;89.16;95776.13;5041812;28;20600;-74
2021/10/29 15:27:07;;;;;;;11.90;9.80;;;;;;;9.17;100.00;95795.75;5054023;28;20103;-73
2021/10/29 15:45:18;;;;;;;17.33;12.53;;;;;;;8.08;100.00;95788.59;5039416;28;20064;-75
2021/10/29 15:50:14;;;;;;;18.30;11.27;;;;;;;7.83;100.00;95802.47;5062304;28;20523;-74
2021/10/29 15:52:40;;;;;;;15.80;12.10;;;;;;;7.68;100.00;95804.81;5039155;28;20048;-75
2021/10/29 15:55:10;;;;;;;15.90;12.27;;;;;;;7.66;100.00;95806.78;5059678;28;20032;-75
2021/10/29 15:57:47;;;;;;;17.90;12.80;;;;;;;7.60;100.00;95810.81;5059468;28;20727;-74
2021/10/29 16:03:16;;;;;;;16.17;12.27;;;;;;;7.33;100.00;95807.31;5010253;28;20048;-74
2021/10/29 16:17:04;;;;;;;16.57;12.30;;;;;;;6.83;100.00;95813.00;5064419;28;20094;-74
2021/10/29 16:19:25;;;;;;;176.37;113.53;;;;;;;6.71;100.00;95815.97;5041678;28;20416;-74
2021/10/29 16:21:51;;;;;;;55.93;44.30;;;;;;;6.58;100.00;95818.94;5053947;28;20032;-73
2021/10/29 16:24:17;;;;;;;22.43;18.70;;;;;;;6.64;100.00;95817.50;5016561;28;21959;-73
2021/10/29 16:26:43;;;;;;;18.63;15.40;;;;;;;6.45;100.00;95818.44;5055770;28;20024;-74
2021/10/29 16:29:11;;;;;;;17.20;14.47;;;;;;;6.26;100.00;95814.09;5034245;28;20028;-73